sensor_id;sensor_type;location;lat;lon;timestamp;pressure;altitude;pressure_sealevel;temperature;humidity
62544;BME280;48597;49.030;1.822;2023-04-06T00:00:34;101038.38;;;19.66;41.16
62544;BME280;48597;49.030;1.822;2023-04-06T00:03:00;101040.00;;;19.67;41.11
62544;BME280;48597;49.030;1.822;2023-04-06T00:05:25;101029.81;;;19.66;41.17
62544;BME280;48597;49.030;1.822;2023-04-06T00:07:52;101026.13;;;19.66;41.08
62544;BME280;48597;49.030;1.822;2023-04-06T00:10:19;101024.91;;;19.67;40.99
62544;BME280;48597;49.030;1.822;2023-04-06T00:12:44;101024.09;;;19.66;40.97
62544;BME280;48597;49.030;1.822;2023-04-06T00:15:10;101024.91;;;19.67;40.97
62544;BME280;48597;49.030;1.822;2023-04-06T00:17:36;101024.91;;;19.67;41.05
62544;BME280;48597;49.030;1.822;2023-04-06T00:20:01;101019.16;;;19.67;40.99
62544;BME280;48597;49.030;1.822;2023-04-06T00:22:27;101019.97;;;19.67;41.02
62544;BME280;48597;49.030;1.822;2023-04-06T00:24:52;101014.25;;;19.67;41.02
62544;BME280;48597;49.030;1.822;2023-04-06T00:27:18;101013.44;;;19.67;40.97
62544;BME280;48597;49.030;1.822;2023-04-06T00:29:44;101008.53;;;19.67;41.02
62544;BME280;48597;49.030;1.822;2023-04-06T00:32:09;101002.81;;;19.67;41.03
62544;BME280;48597;49.030;1.822;2023-04-06T00:34:35;101002.00;;;19.67;40.91
62544;BME280;48597;49.030;1.822;2023-04-06T00:37:00;100993.44;;;19.67;40.96
62544;BME280;48597;49.030;1.822;2023-04-06T00:39:25;100979.94;;;19.67;41.07
62544;BME280;48597;49.030;1.822;2023-04-06T00:41:52;100993.00;;;19.68;41.10
62544;BME280;48597;49.030;1.822;2023-04-06T00:44:18;100997.91;;;19.68;40.94
62544;BME280;48597;49.030;1.822;2023-04-06T00:46:44;100995.03;;;19.68;41.04
62544;BME280;48597;49.030;1.822;2023-04-06T00:49:09;100992.19;;;19.68;41.03
62544;BME280;48597;49.030;1.822;2023-04-06T00:51:35;100981.56;;;19.68;41.15
62544;BME280;48597;49.030;1.822;2023-04-06T00:54:00;100983.59;;;19.68;41.15
62544;BME280;48597;49.030;1.822;2023-04-06T00:56:26;100984.41;;;19.68;41.05
62544;BME280;48597;49.030;1.822;2023-04-06T00:58:52;100982.34;;;19.69;41.15
62544;BME280;48597;49.030;1.822;2023-04-06T01:01:18;100971.72;;;19.69;41.20
62544;BME280;48597;49.030;1.822;2023-04-06T01:03:45;100979.50;;;19.69;41.22
62544;BME280;48597;49.030;1.822;2023-04-06T01:06:14;100968.88;;;19.69;41.27
62544;BME280;48597;49.030;1.822;2023-04-06T01:08:39;100966.81;;;19.70;41.26
62544;BME280;48597;49.030;1.822;2023-04-06T01:11:05;100959.84;;;19.71;41.21
62544;BME280;48597;49.030;1.822;2023-04-06T01:13:30;100963.50;;;19.71;41.18
62544;BME280;48597;49.030;1.822;2023-04-06T01:15:56;100957.78;;;19.71;41.31
62544;BME280;48597;49.030;1.822;2023-04-06T01:18:28;100958.16;;;19.73;41.07
62544;BME280;48597;49.030;1.822;2023-04-06T01:20:54;100948.75;;;19.73;41.34
62544;BME280;48597;49.030;1.822;2023-04-06T01:23:19;100953.19;;;19.74;41.26
62544;BME280;48597;49.030;1.822;2023-04-06T01:25:45;100946.22;;;19.75;41.28
62544;BME280;48597;49.030;1.822;2023-04-06T01:28:11;100940.50;;;19.75;41.28
62544;BME280;48597;49.030;1.822;2023-04-06T01:30:36;100938.47;;;19.75;41.35
62544;BME280;48597;49.030;1.822;2023-04-06T01:33:02;100933.53;;;19.76;41.25
62544;BME280;48597;49.030;1.822;2023-04-06T01:35:28;100931.50;;;19.76;41.34
62544;BME280;48597;49.030;1.822;2023-04-06T01:37:54;100931.03;;;19.78;41.37
62544;BME280;48597;49.030;1.822;2023-04-06T01:40:19;100926.13;;;19.78;41.38
62544;BME280;48597;49.030;1.822;2023-04-06T01:42:45;100918.34;;;19.79;41.44
62544;BME280;48597;49.030;1.822;2023-04-06T01:45:11;100927.75;;;19.79;41.30
62544;BME280;48597;49.030;1.822;2023-04-06T01:47:37;100935.06;;;19.80;41.33
62544;BME280;48597;49.030;1.822;2023-04-06T01:50:02;100933.00;;;19.81;41.33
62544;BME280;48597;49.030;1.822;2023-04-06T01:52:31;100928.09;;;19.81;41.31
62544;BME280;48597;49.030;1.822;2023-04-06T01:54:56;100923.19;;;19.82;41.34
62544;BME280;48597;49.030;1.822;2023-04-06T01:57:22;100917.47;;;19.82;41.32
62544;BME280;48597;49.030;1.822;2023-04-06T01:59:47;100919.88;;;19.83;41.29
62544;BME280;48597;49.030;1.822;2023-04-06T02:02:12;100912.09;;;19.84;41.30
62544;BME280;48597;49.030;1.822;2023-04-06T02:04:38;100914.50;;;19.85;41.26
62544;BME280;48597;49.030;1.822;2023-04-06T02:07:03;100915.31;;;19.86;41.34
62544;BME280;48597;49.030;1.822;2023-04-06T02:09:29;100911.19;;;19.87;41.29
62544;BME280;48597;49.030;1.822;2023-04-06T02:11:55;100905.44;;;19.87;41.25
62544;BME280;48597;49.030;1.822;2023-04-06T02:14:20;100909.94;;;19.88;41.34
62544;BME280;48597;49.030;1.822;2023-04-06T02:16:46;100908.66;;;19.89;41.24
62544;BME280;48597;49.030;1.822;2023-04-06T02:19:11;100902.50;;;19.90;41.34
62544;BME280;48597;49.030;1.822;2023-04-06T02:21:37;100896.78;;;19.90;41.28
62544;BME280;48597;49.030;1.822;2023-04-06T02:24:02;100901.25;;;19.91;41.24
62544;BME280;48597;49.030;1.822;2023-04-06T02:26:28;100911.44;;;19.92;41.21
62544;BME280;48597;49.030;1.822;2023-04-06T02:28:53;100909.38;;;19.93;41.30
62544;BME280;48597;49.030;1.822;2023-04-06T02:31:18;100900.81;;;19.93;41.24
62544;BME280;48597;49.030;1.822;2023-04-06T02:33:44;100890.97;;;19.94;41.29
62544;BME280;48597;49.030;1.822;2023-04-06T02:36:09;100889.72;;;19.95;41.17
62544;BME280;48597;49.030;1.822;2023-04-06T02:38:34;100892.59;;;19.95;41.25
62544;BME280;48597;49.030;1.822;2023-04-06T02:41:00;100889.28;;;19.96;41.27
62544;BME280;48597;49.030;1.822;2023-04-06T02:43:25;100884.34;;;19.97;41.33
62544;BME280;48597;49.030;1.822;2023-04-06T02:45:51;100894.19;;;19.96;41.17
62544;BME280;48597;49.030;1.822;2023-04-06T02:48:16;100891.69;;;19.98;41.28
62544;BME280;48597;49.030;1.822;2023-04-06T02:50:41;100897.41;;;19.98;41.27
62544;BME280;48597;49.030;1.822;2023-04-06T02:53:07;100899.00;;;19.99;41.19
62544;BME280;48597;49.030;1.822;2023-04-06T02:55:32;100893.28;;;19.99;41.18
62544;BME280;48597;49.030;1.822;2023-04-06T02:57:58;100894.06;;;19.99;41.10
62544;BME280;48597;49.030;1.822;2023-04-06T03:00:24;100889.97;;;20.01;41.29
62544;BME280;48597;49.030;1.822;2023-04-06T03:02:49;100896.47;;;20.01;41.15
62544;BME280;48597;49.030;1.822;2023-04-06T03:05:15;100885.03;;;20.01;41.17
62544;BME280;48597;49.030;1.822;2023-04-06T03:07:41;100876.00;;;20.03;41.11
62544;BME280;48597;49.030;1.822;2023-04-06T03:10:06;100870.28;;;20.03;41.11
62544;BME280;48597;49.030;1.822;2023-04-06T03:12:32;100862.50;;;20.03;41.12
62544;BME280;48597;49.030;1.822;2023-04-06T03:14:57;100866.16;;;20.04;41.14
62544;BME280;48597;49.030;1.822;2023-04-06T03:17:23;100855.53;;;20.04;41.08
62544;BME280;48597;49.030;1.822;2023-04-06T03:19:48;100854.28;;;20.05;41.15
62544;BME280;48597;49.030;1.822;2023-04-06T03:22:13;100857.13;;;20.05;41.11
62544;BME280;48597;49.030;1.822;2023-04-06T03:24:39;100849.34;;;20.06;41.20
62544;BME280;48597;49.030;1.822;2023-04-06T03:27:04;100847.31;;;20.06;41.05
62544;BME280;48597;49.030;1.822;2023-04-06T03:29:31;100843.19;;;20.07;41.10
62544;BME280;48597;49.030;1.822;2023-04-06T03:31:56;100851.78;;;20.07;41.11
62544;BME280;48597;49.030;1.822;2023-04-06T03:34:22;100843.19;;;20.07;41.12
62544;BME280;48597;49.030;1.822;2023-04-06T03:36:47;100841.94;;;20.08;41.08
62544;BME280;48597;49.030;1.822;2023-04-06T03:39:13;100867.69;;;20.08;41.07
62544;BME280;48597;49.030;1.822;2023-04-06T03:41:38;100874.22;;;20.09;40.79
62544;BME280;48597;49.030;1.822;2023-04-06T03:44:05;100868.03;;;20.10;40.99
62544;BME280;48597;49.030;1.822;2023-04-06T03:46:30;100865.19;;;20.10;40.91
62544;BME280;48597;49.030;1.822;2023-04-06T03:48:56;100861.50;;;20.10;41.15
62544;BME280;48597;49.030;1.822;2023-04-06T03:51:22;100865.97;;;20.11;40.96
62544;BME280;48597;49.030;1.822;2023-04-06T03:53:50;100860.25;;;20.11;40.92
62544;BME280;48597;49.030;1.822;2023-04-06T03:56:16;100859.47;;;20.10;40.91
62544;BME280;48597;49.030;1.822;2023-04-06T03:58:41;100856.16;;;20.12;40.90
62544;BME280;48597;49.030;1.822;2023-04-06T04:01:09;100862.66;;;20.12;40.97
62544;BME280;48597;49.030;1.822;2023-04-06T04:03:35;100865.53;;;20.12;41.10
62544;BME280;48597;49.030;1.822;2023-04-06T04:06:00;100872.03;;;20.13;41.04
62544;BME280;48597;49.030;1.822;2023-04-06T04:08:25;100863.44;;;20.13;40.98
62544;BME280;48597;49.030;1.822;2023-04-06T04:10:51;100875.69;;;20.13;40.74
62544;BME280;48597;49.030;1.822;2023-04-06T04:13:16;100875.69;;;20.13;40.90
62544;BME280;48597;49.030;1.822;2023-04-06T04:15:42;100872.84;;;20.13;40.96
62544;BME280;48597;49.030;1.822;2023-04-06T04:18:07;100862.19;;;20.14;40.88
62544;BME280;48597;49.030;1.822;2023-04-06T04:20:33;100856.47;;;20.14;40.83
62544;BME280;48597;49.030;1.822;2023-04-06T04:22:59;100871.59;;;20.14;40.93
62544;BME280;48597;49.030;1.822;2023-04-06T04:25:24;100874.44;;;20.14;40.87
62544;BME280;48597;49.030;1.822;2023-04-06T04:27:50;100882.56;;;20.16;40.89
62544;BME280;48597;49.030;1.822;2023-04-06T04:30:16;100877.66;;;20.16;40.79
62544;BME280;48597;49.030;1.822;2023-04-06T04:32:41;100870.31;;;20.15;40.99
62544;BME280;48597;49.030;1.822;2023-04-06T04:35:07;100874.81;;;20.16;40.94
62544;BME280;48597;49.030;1.822;2023-04-06T04:37:32;100869.88;;;20.17;40.90
62544;BME280;48597;49.030;1.822;2023-04-06T04:39:59;100871.94;;;20.16;40.81
62544;BME280;48597;49.030;1.822;2023-04-06T04:42:25;100870.69;;;20.17;41.00
62544;BME280;48597;49.030;1.822;2023-04-06T04:44:54;100870.22;;;20.19;40.96
62544;BME280;48597;49.030;1.822;2023-04-06T04:47:19;100859.22;;;20.17;40.81
62544;BME280;48597;49.030;1.822;2023-04-06T04:49:45;100853.50;;;20.17;40.79
62544;BME280;48597;49.030;1.822;2023-04-06T04:52:10;100853.06;;;20.19;40.90
62544;BME280;48597;49.030;1.822;2023-04-06T04:54:35;100851.81;;;20.20;40.85
62544;BME280;48597;49.030;1.822;2023-04-06T04:57:01;100853.88;;;20.19;40.86
62544;BME280;48597;49.030;1.822;2023-04-06T04:59:26;100857.53;;;20.20;40.75
62544;BME280;48597;49.030;1.822;2023-04-06T05:01:52;100864.06;;;20.20;40.86
62544;BME280;48597;49.030;1.822;2023-04-06T05:04:17;100859.13;;;20.21;40.92
62544;BME280;48597;49.030;1.822;2023-04-06T05:06:42;100860.41;;;20.20;40.74
62544;BME280;48597;49.030;1.822;2023-04-06T05:09:08;100862.00;;;20.21;40.85
62544;BME280;48597;49.030;1.822;2023-04-06T05:11:33;100859.94;;;20.21;40.87
62544;BME280;48597;49.030;1.822;2023-04-06T05:13:59;100865.66;;;20.21;40.89
62544;BME280;48597;49.030;1.822;2023-04-06T05:16:24;100859.94;;;20.21;40.82
62544;BME280;48597;49.030;1.822;2023-04-06T05:18:50;100856.28;;;20.21;40.86
62544;BME280;48597;49.030;1.822;2023-04-06T05:21:16;100859.94;;;20.21;40.93
62544;BME280;48597;49.030;1.822;2023-04-06T05:23:41;100860.75;;;20.22;40.75
62544;BME280;48597;49.030;1.822;2023-04-06T05:26:06;100866.47;;;20.22;40.77
62544;BME280;48597;49.030;1.822;2023-04-06T05:28:32;100863.59;;;20.22;40.92
62544;BME280;48597;49.030;1.822;2023-04-06T05:30:57;100869.78;;;20.20;40.78
62544;BME280;48597;49.030;1.822;2023-04-06T05:33:24;100863.59;;;20.22;40.95
62544;BME280;48597;49.030;1.822;2023-04-06T05:35:50;100869.34;;;20.22;40.99
62544;BME280;48597;49.030;1.822;2023-04-06T05:38:15;100866.47;;;20.22;40.75
62544;BME280;48597;49.030;1.822;2023-04-06T05:40:40;100877.13;;;20.21;40.76
62544;BME280;48597;49.030;1.822;2023-04-06T05:43:07;100871.38;;;20.21;40.79
62544;BME280;48597;49.030;1.822;2023-04-06T05:45:33;100871.38;;;20.21;40.99
62544;BME280;48597;49.030;1.822;2023-04-06T05:47:58;100874.25;;;20.21;40.85
62544;BME280;48597;49.030;1.822;2023-04-06T05:50:24;100872.66;;;20.20;40.82
62544;BME280;48597;49.030;1.822;2023-04-06T05:52:49;100874.69;;;20.20;40.83
62544;BME280;48597;49.030;1.822;2023-04-06T05:55:15;100870.22;;;20.19;40.78
62544;BME280;48597;49.030;1.822;2023-04-06T05:57:40;100871.03;;;20.19;40.79
62544;BME280;48597;49.030;1.822;2023-04-06T06:00:06;100868.19;;;20.19;40.67
62544;BME280;48597;49.030;1.822;2023-04-06T06:02:35;100873.91;;;20.19;40.73
62544;BME280;48597;49.030;1.822;2023-04-06T06:05:00;100867.81;;;20.17;40.83
62544;BME280;48597;49.030;1.822;2023-04-06T06:07:25;100873.09;;;20.19;40.81
62544;BME280;48597;49.030;1.822;2023-04-06T06:09:51;100873.09;;;20.19;40.76
62544;BME280;48597;49.030;1.822;2023-04-06T06:12:16;100876.41;;;20.17;40.87
62544;BME280;48597;49.030;1.822;2023-04-06T06:14:42;100877.22;;;20.18;40.72
62544;BME280;48597;49.030;1.822;2023-04-06T06:17:08;100871.47;;;20.18;40.71
62544;BME280;48597;49.030;1.822;2023-04-06T06:19:33;100882.47;;;20.19;40.70
62544;BME280;48597;49.030;1.822;2023-04-06T06:21:59;100875.16;;;20.18;40.78
62544;BME280;48597;49.030;1.822;2023-04-06T06:24:27;100879.63;;;20.19;40.88
62544;BME280;48597;49.030;1.822;2023-04-06T06:26:53;100880.44;;;20.20;40.87
62544;BME280;48597;49.030;1.822;2023-04-06T06:29:18;100885.78;;;20.18;40.65
62544;BME280;48597;49.030;1.822;2023-04-06T06:31:44;100873.09;;;20.19;40.72
62544;BME280;48597;49.030;1.822;2023-04-06T06:34:09;100886.94;;;20.20;40.76
62544;BME280;48597;49.030;1.822;2023-04-06T06:36:35;100883.28;;;20.20;40.87
62544;BME280;48597;49.030;1.822;2023-04-06T06:39:01;100886.94;;;20.20;41.03
62544;BME280;48597;49.030;1.822;2023-04-06T06:41:28;100881.22;;;20.20;40.87
62544;BME280;48597;49.030;1.822;2023-04-06T06:43:54;100884.53;;;20.19;40.88
62544;BME280;48597;49.030;1.822;2023-04-06T06:46:20;100886.16;;;20.20;40.99
62544;BME280;48597;49.030;1.822;2023-04-06T06:48:46;100879.16;;;20.21;40.99
62544;BME280;48597;49.030;1.822;2023-04-06T06:51:11;100877.56;;;20.20;40.89
62544;BME280;48597;49.030;1.822;2023-04-06T06:53:37;100871.03;;;20.19;40.95
62544;BME280;48597;49.030;1.822;2023-04-06T06:56:02;100858.34;;;20.20;41.02
62544;BME280;48597;49.030;1.822;2023-04-06T06:58:28;100869.78;;;20.20;40.99
62544;BME280;48597;49.030;1.822;2023-04-06T07:00:57;100864.06;;;20.20;40.91
62544;BME280;48597;49.030;1.822;2023-04-06T07:03:23;100867.38;;;20.19;40.79
62544;BME280;48597;49.030;1.822;2023-04-06T07:05:49;100865.31;;;20.19;41.02
62544;BME280;48597;49.030;1.822;2023-04-06T07:08:19;100865.31;;;20.19;41.15
62544;BME280;48597;49.030;1.822;2023-04-06T07:10:44;100871.03;;;20.19;41.13
62544;BME280;48597;49.030;1.822;2023-04-06T07:13:09;100871.84;;;20.20;41.08
62544;BME280;48597;49.030;1.822;2023-04-06T07:15:35;100865.31;;;20.19;41.11
62544;BME280;48597;49.030;1.822;2023-04-06T07:18:00;100865.75;;;20.18;41.17
62544;BME280;48597;49.030;1.822;2023-04-06T07:20:26;100859.22;;;20.17;41.14
62544;BME280;48597;49.030;1.822;2023-04-06T07:22:53;100856.38;;;20.17;41.18
62544;BME280;48597;49.030;1.822;2023-04-06T07:25:18;100846.97;;;20.17;41.27
62544;BME280;48597;49.030;1.822;2023-04-06T07:27:44;100847.78;;;20.17;41.02
62544;BME280;48597;49.030;1.822;2023-04-06T07:30:10;100849.03;;;20.16;41.14
62544;BME280;48597;49.030;1.822;2023-04-06T07:32:35;100843.31;;;20.16;40.82
62544;BME280;48597;49.030;1.822;2023-04-06T07:35:01;100851.09;;;20.16;41.23
62544;BME280;48597;49.030;1.822;2023-04-06T07:37:27;100847.44;;;20.15;41.16
62544;BME280;48597;49.030;1.822;2023-04-06T07:39:52;100840.91;;;20.15;41.04
62544;BME280;48597;49.030;1.822;2023-04-06T07:42:17;100838.84;;;20.15;41.15
62544;BME280;48597;49.030;1.822;2023-04-06T07:44:43;100838.84;;;20.15;40.91
62544;BME280;48597;49.030;1.822;2023-04-06T07:47:08;100842.97;;;20.14;40.93
62544;BME280;48597;49.030;1.822;2023-04-06T07:49:34;100847.06;;;20.13;41.07
62544;BME280;48597;49.030;1.822;2023-04-06T07:51:59;100844.22;;;20.13;41.00
62544;BME280;48597;49.030;1.822;2023-04-06T07:54:25;100848.69;;;20.14;41.00
62544;BME280;48597;49.030;1.822;2023-04-06T07:56:51;100841.34;;;20.13;40.90
62544;BME280;48597;49.030;1.822;2023-04-06T07:59:16;100841.84;;;20.12;41.06
62544;BME280;48597;49.030;1.822;2023-04-06T08:01:42;100845.94;;;20.11;40.87
62544;BME280;48597;49.030;1.822;2023-04-06T08:04:07;100843.91;;;20.11;40.90
62544;BME280;48597;49.030;1.822;2023-04-06T08:06:32;100857.41;;;20.11;40.83
62544;BME280;48597;49.030;1.822;2023-04-06T08:08:59;100863.56;;;20.09;40.88
62544;BME280;48597;49.030;1.822;2023-04-06T08:11:24;100864.38;;;20.10;40.90
62544;BME280;48597;49.030;1.822;2023-04-06T08:13:51;100862.75;;;20.09;40.70
62544;BME280;48597;49.030;1.822;2023-04-06T08:16:17;100877.06;;;20.09;40.91
62544;BME280;48597;49.030;1.822;2023-04-06T08:18:43;100869.75;;;20.08;40.92
62544;BME280;48597;49.030;1.822;2023-04-06T08:21:09;100854.63;;;20.07;40.94
62544;BME280;48597;49.030;1.822;2023-04-06T08:23:34;100859.56;;;20.07;40.79
62544;BME280;48597;49.030;1.822;2023-04-06T08:26:00;100859.56;;;20.07;40.75
62544;BME280;48597;49.030;1.822;2023-04-06T08:28:25;100858.75;;;20.06;40.84
62544;BME280;48597;49.030;1.822;2023-04-06T08:30:51;100862.84;;;20.05;40.65
62544;BME280;48597;49.030;1.822;2023-04-06T08:33:16;100864.13;;;20.04;40.85
62544;BME280;48597;49.030;1.822;2023-04-06T08:35:42;100863.31;;;20.04;40.70
62544;BME280;48597;49.030;1.822;2023-04-06T08:38:07;100862.50;;;20.03;41.11
62544;BME280;48597;49.030;1.822;2023-04-06T08:40:39;100874.75;;;20.04;40.69
62544;BME280;48597;49.030;1.822;2023-04-06T08:43:10;100865.38;;;20.03;40.75
62544;BME280;48597;49.030;1.822;2023-04-06T08:45:38;100867.41;;;20.03;40.87
62544;BME280;48597;49.030;1.822;2023-04-06T08:48:04;100870.72;;;20.01;40.81
62544;BME280;48597;49.030;1.822;2023-04-06T08:50:32;100860.53;;;20.00;40.98
62544;BME280;48597;49.030;1.822;2023-04-06T08:52:59;100864.69;;;19.99;40.95
62544;BME280;48597;49.030;1.822;2023-04-06T08:55:25;100871.19;;;19.99;41.00
62544;BME280;48597;49.030;1.822;2023-04-06T08:57:51;100865.47;;;19.99;40.75
62544;BME280;48597;49.030;1.822;2023-04-06T09:00:20;100868.81;;;19.98;40.87
62544;BME280;48597;49.030;1.822;2023-04-06T09:02:47;100867.19;;;19.97;40.80
62544;BME280;48597;49.030;1.822;2023-04-06T09:05:15;100879.09;;;19.95;40.86
62544;BME280;48597;49.030;1.822;2023-04-06T09:07:40;100872.09;;;19.96;40.76
62544;BME280;48597;49.030;1.822;2023-04-06T09:10:06;100871.31;;;19.96;40.87
62544;BME280;48597;49.030;1.822;2023-04-06T09:12:32;100895.44;;;19.95;40.88
62544;BME280;48597;49.030;1.822;2023-04-06T09:14:59;100890.97;;;19.94;40.94
62544;BME280;48597;49.030;1.822;2023-04-06T09:17:29;100893.03;;;19.93;40.61
62544;BME280;48597;49.030;1.822;2023-04-06T09:19:57;100889.00;;;19.91;40.94
62544;BME280;48597;49.030;1.822;2023-04-06T09:22:23;100899.19;;;19.92;41.03
62544;BME280;48597;49.030;1.822;2023-04-06T09:24:52;100902.06;;;19.92;40.94
62544;BME280;48597;49.030;1.822;2023-04-06T09:27:30;100895.53;;;19.91;40.78
62544;BME280;48597;49.030;1.822;2023-04-06T09:30:09;100895.97;;;19.90;40.76
62544;BME280;48597;49.030;1.822;2023-04-06T09:32:53;100900.09;;;19.89;40.71
62544;BME280;48597;49.030;1.822;2023-04-06T09:35:19;100898.47;;;19.88;40.98
62544;BME280;48597;49.030;1.822;2023-04-06T09:37:46;100892.75;;;19.88;40.92
62544;BME280;48597;49.030;1.822;2023-04-06T09:40:13;100892.75;;;19.88;40.96
62544;BME280;48597;49.030;1.822;2023-04-06T09:42:41;100888.28;;;19.87;40.99
62544;BME280;48597;49.030;1.822;2023-04-06T09:45:07;100881.00;;;19.86;40.93
62544;BME280;48597;49.030;1.822;2023-04-06T09:47:35;100879.72;;;19.87;40.89
62544;BME280;48597;49.030;1.822;2023-04-06T09:50:02;100883.84;;;19.86;40.89
62544;BME280;48597;49.030;1.822;2023-04-06T09:52:33;100890.34;;;19.86;40.78
62544;BME280;48597;49.030;1.822;2023-04-06T09:55:03;100881.44;;;19.84;40.96
62544;BME280;48597;49.030;1.822;2023-04-06T09:57:32;100885.56;;;19.83;40.97
62544;BME280;48597;49.030;1.822;2023-04-06T10:05:20;100892.53;;;19.82;40.94
62544;BME280;48597;49.030;1.822;2023-04-06T10:07:48;100894.56;;;19.82;40.95
62544;BME280;48597;49.030;1.822;2023-04-06T10:10:16;100895.81;;;19.81;40.95
62544;BME280;48597;49.030;1.822;2023-04-06T10:12:41;100895.47;;;19.79;40.99
62544;BME280;48597;49.030;1.822;2023-04-06T10:15:08;100897.53;;;19.78;41.05
62544;BME280;48597;49.030;1.822;2023-04-06T10:17:33;100891.34;;;19.80;40.97
62544;BME280;48597;49.030;1.822;2023-04-06T10:22:55;100889.75;;;19.79;40.99
62544;BME280;48597;49.030;1.822;2023-04-06T10:25:29;100888.59;;;19.76;41.08
62544;BME280;48597;49.030;1.822;2023-04-06T10:28:13;100886.53;;;19.77;40.82
62544;BME280;48597;49.030;1.822;2023-04-06T10:30:42;100874.28;;;19.76;41.05
62544;BME280;48597;49.030;1.822;2023-04-06T10:33:15;100877.16;;;19.76;41.00
62544;BME280;48597;49.030;1.822;2023-04-06T10:35:41;100882.88;;;19.76;41.15
62544;BME280;48597;49.030;1.822;2023-04-06T10:38:06;100880.00;;;19.76;41.06
62544;BME280;48597;49.030;1.822;2023-04-06T10:40:36;100877.16;;;19.76;41.09
62544;BME280;48597;49.030;1.822;2023-04-06T10:43:21;100876.34;;;19.76;40.89
62544;BME280;48597;49.030;1.822;2023-04-06T10:45:59;100876.34;;;19.76;41.08
62544;BME280;48597;49.030;1.822;2023-04-06T10:48:25;100877.59;;;19.75;41.20
62544;BME280;48597;49.030;1.822;2023-04-06T10:51:01;100872.69;;;19.75;41.22
62544;BME280;48597;49.030;1.822;2023-04-06T10:53:27;100872.34;;;19.73;41.30
62544;BME280;48597;49.030;1.822;2023-04-06T10:55:56;100873.94;;;19.74;41.15
62544;BME280;48597;49.030;1.822;2023-04-06T10:58:28;100859.63;;;19.74;41.24
62544;BME280;48597;49.030;1.822;2023-04-06T11:00:55;100865.81;;;19.73;41.22
62544;BME280;48597;49.030;1.822;2023-04-06T11:03:25;100858.81;;;19.74;41.34
62544;BME280;48597;49.030;1.822;2023-04-06T11:05:51;100860.09;;;19.73;41.22
62544;BME280;48597;49.030;1.822;2023-04-06T11:08:31;100844.53;;;19.74;41.15
62544;BME280;48597;49.030;1.822;2023-04-06T11:11:07;100849.91;;;19.72;41.37
62544;BME280;48597;49.030;1.822;2023-04-06T11:13:42;100849.91;;;19.72;41.28
62544;BME280;48597;49.030;1.822;2023-04-06T11:16:19;100853.59;;;19.72;41.24
62544;BME280;48597;49.030;1.822;2023-04-06T11:18:59;100844.66;;;19.70;41.27
62544;BME280;48597;49.030;1.822;2023-04-06T11:21:36;100849.91;;;19.72;41.19
62544;BME280;48597;49.030;1.822;2023-04-06T11:24:15;100849.91;;;19.72;41.25
62544;BME280;48597;49.030;1.822;2023-04-06T11:26:46;100843.84;;;19.70;41.34
62544;BME280;48597;49.030;1.822;2023-04-06T11:29:15;100848.75;;;19.69;41.32
62544;BME280;48597;49.030;1.822;2023-04-06T11:31:45;100845.09;;;19.69;41.25
62544;BME280;48597;49.030;1.822;2023-04-06T11:34:21;100845.09;;;19.69;41.46
62544;BME280;48597;49.030;1.822;2023-04-06T11:36:49;100834.47;;;19.69;41.42
62544;BME280;48597;49.030;1.822;2023-04-06T11:39:19;100843.84;;;19.70;41.36
62544;BME280;48597;49.030;1.822;2023-04-06T11:41:49;100833.66;;;19.69;41.45
62544;BME280;48597;49.030;1.822;2023-04-06T11:44:49;100840.19;;;19.69;41.22
62544;BME280;48597;49.030;1.822;2023-04-06T11:47:14;100832.84;;;19.68;41.40
62544;BME280;48597;49.030;1.822;2023-04-06T11:49:41;100829.19;;;19.68;41.45
62544;BME280;48597;49.030;1.822;2023-04-06T11:52:21;100820.59;;;19.68;41.34
62544;BME280;48597;49.030;1.822;2023-04-06T11:54:49;100832.84;;;19.68;41.55
62544;BME280;48597;49.030;1.822;2023-04-06T11:57:18;100826.31;;;19.68;41.55
62544;BME280;48597;49.030;1.822;2023-04-06T11:59:45;100827.13;;;19.68;41.54
62544;BME280;48597;49.030;1.822;2023-04-06T12:02:10;100819.00;;;19.67;41.59
62544;BME280;48597;49.030;1.822;2023-04-06T12:04:36;100823.47;;;19.68;41.62
62544;BME280;48597;49.030;1.822;2023-04-06T12:07:03;100824.63;;;19.70;41.52
62544;BME280;48597;49.030;1.822;2023-04-06T12:09:29;100825.06;;;19.69;41.74
62544;BME280;48597;49.030;1.822;2023-04-06T12:11:54;100829.53;;;19.70;41.71
62544;BME280;48597;49.030;1.822;2023-04-06T12:14:21;100826.69;;;19.70;41.67
62544;BME280;48597;49.030;1.822;2023-04-06T12:16:47;100827.50;;;19.70;41.82
62544;BME280;48597;49.030;1.822;2023-04-06T12:19:12;100842.59;;;19.71;41.76
62544;BME280;48597;49.030;1.822;2023-04-06T12:21:38;100829.53;;;19.70;41.73
62544;BME280;48597;49.030;1.822;2023-04-06T12:24:04;100823.81;;;19.70;41.76
62544;BME280;48597;49.030;1.822;2023-04-06T12:26:30;100823.03;;;19.69;41.80
62544;BME280;48597;49.030;1.822;2023-04-06T12:28:56;100820.53;;;19.71;41.79
62544;BME280;48597;49.030;1.822;2023-04-06T12:31:22;100822.13;;;19.72;41.84
62544;BME280;48597;49.030;1.822;2023-04-06T12:33:49;100808.63;;;19.73;41.84
62544;BME280;48597;49.030;1.822;2023-04-06T12:36:16;100818.78;;;19.74;41.76
62544;BME280;48597;49.030;1.822;2023-04-06T12:38:44;100806.56;;;19.73;41.83
62544;BME280;48597;49.030;1.822;2023-04-06T12:41:11;100817.53;;;19.75;41.78
62544;BME280;48597;49.030;1.822;2023-04-06T12:43:37;100811.00;;;19.74;41.98
62544;BME280;48597;49.030;1.822;2023-04-06T12:46:03;100811.81;;;19.75;41.93
62544;BME280;48597;49.030;1.822;2023-04-06T12:48:28;100820.41;;;19.75;41.94
62544;BME280;48597;49.030;1.822;2023-04-06T12:50:57;100809.75;;;19.75;42.02
62544;BME280;48597;49.030;1.822;2023-04-06T12:53:22;100815.47;;;19.75;41.99
62544;BME280;48597;49.030;1.822;2023-04-06T12:55:48;100818.34;;;19.75;42.09